sensor_id;sensor_type;location;lat;lon;timestamp;P1;durP1;ratioP1;P2;durP2;ratioP2
7791;SDS011;3940;49.892;10.886;2022-10-15T00:00:17;9.00;;;6.00;;
7791;SDS011;3940;49.892;10.886;2022-10-15T00:03:01;6.13;;;5.03;;
7791;SDS011;3940;49.892;10.886;2022-10-15T00:05:46;7.00;;;5.27;;
7791;SDS011;3940;49.892;10.886;2022-10-15T00:08:30;5.57;;;5.03;;
7791;SDS011;3940;49.892;10.886;2022-10-15T00:11:16;9.13;;;5.53;;
7791;SDS011;3940;49.892;10.886;2022-10-15T00:14:02;8.07;;;5.13;;
7791;SDS011;3940;49.892;10.886;2022-10-15T00:16:47;6.87;;;5.60;;
7791;SDS011;3940;49.892;10.886;2022-10-15T00:19:31;5.70;;;5.17;;
7791;SDS011;3940;49.892;10.886;2022-10-15T00:22:15;6.40;;;5.47;;
7791;SDS011;3940;49.892;10.886;2022-10-15T00:25:00;9.90;;;5.13;;
7791;SDS011;3940;49.892;10.886;2022-10-15T00:27:44;6.50;;;5.60;;
7791;SDS011;3940;49.892;10.886;2022-10-15T00:30:29;7.97;;;6.40;;
7791;SDS011;3940;49.892;10.886;2022-10-15T00:33:13;6.87;;;5.87;;
7791;SDS011;3940;49.892;10.886;2022-10-15T00:35:58;5.90;;;5.37;;
7791;SDS011;3940;49.892;10.886;2022-10-15T00:38:47;6.87;;;5.90;;
7791;SDS011;3940;49.892;10.886;2022-10-15T00:42:17;7.90;;;6.57;;
7791;SDS011;3940;49.892;10.886;2022-10-15T00:45:08;7.23;;;5.53;;
7791;SDS011;3940;49.892;10.886;2022-10-15T00:47:59;8.33;;;7.17;;
7791;SDS011;3940;49.892;10.886;2022-10-15T00:50:46;7.70;;;5.63;;
7791;SDS011;3940;49.892;10.886;2022-10-15T00:53:34;15.07;;;6.07;;
7791;SDS011;3940;49.892;10.886;2022-10-15T00:56:19;7.83;;;7.03;;
7791;SDS011;3940;49.892;10.886;2022-10-15T00:59:35;7.67;;;5.90;;
7791;SDS011;3940;49.892;10.886;2022-10-15T01:02:34;7.97;;;6.40;;
7791;SDS011;3940;49.892;10.886;2022-10-15T01:05:20;9.60;;;6.87;;
7791;SDS011;3940;49.892;10.886;2022-10-15T01:08:36;8.13;;;6.67;;
7791;SDS011;3940;49.892;10.886;2022-10-15T01:11:45;7.80;;;5.83;;
7791;SDS011;3940;49.892;10.886;2022-10-15T01:14:50;8.50;;;7.70;;
7791;SDS011;3940;49.892;10.886;2022-10-15T01:18:02;7.73;;;6.93;;
7791;SDS011;3940;49.892;10.886;2022-10-15T01:21:14;7.87;;;7.07;;
7791;SDS011;3940;49.892;10.886;2022-10-15T01:24:18;7.80;;;6.53;;
7791;SDS011;3940;49.892;10.886;2022-10-15T01:27:24;7.27;;;6.53;;
7791;SDS011;3940;49.892;10.886;2022-10-15T01:30:20;8.60;;;6.13;;
7791;SDS011;3940;49.892;10.886;2022-10-15T01:33:09;7.47;;;6.73;;
7791;SDS011;3940;49.892;10.886;2022-10-15T01:36:14;10.90;;;7.63;;
7791;SDS011;3940;49.892;10.886;2022-10-15T01:42:12;7.87;;;7.07;;
7791;SDS011;3940;49.892;10.886;2022-10-15T01:45:06;8.70;;;7.30;;
7791;SDS011;3940;49.892;10.886;2022-10-15T01:47:55;8.37;;;5.83;;
7791;SDS011;3940;49.892;10.886;2022-10-15T01:50:56;9.73;;;6.50;;
7791;SDS011;3940;49.892;10.886;2022-10-15T01:53:49;7.40;;;6.70;;
7791;SDS011;3940;49.892;10.886;2022-10-15T01:56:35;7.00;;;6.00;;
7791;SDS011;3940;49.892;10.886;2022-10-15T01:59:21;7.33;;;6.03;;
7791;SDS011;3940;49.892;10.886;2022-10-15T02:02:08;10.30;;;6.93;;
7791;SDS011;3940;49.892;10.886;2022-10-15T02:04:52;7.27;;;6.27;;
7791;SDS011;3940;49.892;10.886;2022-10-15T02:07:54;8.60;;;7.70;;
7791;SDS011;3940;49.892;10.886;2022-10-15T02:10:58;6.80;;;5.80;;
7791;SDS011;3940;49.892;10.886;2022-10-15T02:13:49;6.90;;;5.73;;
7791;SDS011;3940;49.892;10.886;2022-10-15T02:16:43;7.57;;;6.10;;
7791;SDS011;3940;49.892;10.886;2022-10-15T02:22:35;6.77;;;6.07;;
7791;SDS011;3940;49.892;10.886;2022-10-15T02:25:24;7.40;;;5.70;;
7791;SDS011;3940;49.892;10.886;2022-10-15T02:28:11;10.17;;;6.30;;
7791;SDS011;3940;49.892;10.886;2022-10-15T02:30:58;7.57;;;5.93;;
7791;SDS011;3940;49.892;10.886;2022-10-15T02:33:45;7.57;;;6.30;;
7791;SDS011;3940;49.892;10.886;2022-10-15T02:36:30;7.23;;;6.20;;
7791;SDS011;3940;49.892;10.886;2022-10-15T02:39:17;7.00;;;6.20;;
7791;SDS011;3940;49.892;10.886;2022-10-15T02:42:04;4.97;;;4.57;;
7791;SDS011;3940;49.892;10.886;2022-10-15T02:44:49;6.00;;;5.30;;
7791;SDS011;3940;49.892;10.886;2022-10-15T02:47:34;6.53;;;5.80;;
7791;SDS011;3940;49.892;10.886;2022-10-15T02:50:18;6.27;;;5.67;;
7791;SDS011;3940;49.892;10.886;2022-10-15T02:53:02;4.83;;;4.43;;
7791;SDS011;3940;49.892;10.886;2022-10-15T02:55:47;5.63;;;4.80;;
7791;SDS011;3940;49.892;10.886;2022-10-15T02:58:31;5.83;;;5.23;;
7791;SDS011;3940;49.892;10.886;2022-10-15T03:01:16;5.00;;;4.50;;
7791;SDS011;3940;49.892;10.886;2022-10-15T03:04:00;6.13;;;5.33;;
7791;SDS011;3940;49.892;10.886;2022-10-15T03:06:45;5.80;;;5.00;;
7791;SDS011;3940;49.892;10.886;2022-10-15T03:09:30;4.60;;;4.00;;
7791;SDS011;3940;49.892;10.886;2022-10-15T03:12:16;5.43;;;4.77;;
7791;SDS011;3940;49.892;10.886;2022-10-15T03:15:03;4.77;;;3.90;;
7791;SDS011;3940;49.892;10.886;2022-10-15T03:17:48;4.80;;;3.90;;
7791;SDS011;3940;49.892;10.886;2022-10-15T03:20:32;5.20;;;4.37;;
7791;SDS011;3940;49.892;10.886;2022-10-15T03:23:17;5.40;;;4.80;;
7791;SDS011;3940;49.892;10.886;2022-10-15T03:26:01;4.83;;;4.13;;
7791;SDS011;3940;49.892;10.886;2022-10-15T03:28:45;4.83;;;3.97;;
7791;SDS011;3940;49.892;10.886;2022-10-15T03:31:30;5.30;;;4.80;;
7791;SDS011;3940;49.892;10.886;2022-10-15T03:34:13;4.87;;;3.83;;
7791;SDS011;3940;49.892;10.886;2022-10-15T03:36:58;5.23;;;4.57;;
7791;SDS011;3940;49.892;10.886;2022-10-15T03:39:42;4.80;;;4.30;;
7791;SDS011;3940;49.892;10.886;2022-10-15T03:42:26;5.40;;;4.20;;
7791;SDS011;3940;49.892;10.886;2022-10-15T03:45:10;4.83;;;4.33;;
7791;SDS011;3940;49.892;10.886;2022-10-15T03:47:55;6.63;;;4.83;;
7791;SDS011;3940;49.892;10.886;2022-10-15T03:50:39;5.30;;;4.30;;
7791;SDS011;3940;49.892;10.886;2022-10-15T03:53:23;5.17;;;4.10;;
7791;SDS011;3940;49.892;10.886;2022-10-15T03:56:07;21.07;;;5.10;;
7791;SDS011;3940;49.892;10.886;2022-10-15T03:58:51;4.93;;;4.13;;
7791;SDS011;3940;49.892;10.886;2022-10-15T04:01:35;4.23;;;3.93;;
7791;SDS011;3940;49.892;10.886;2022-10-15T04:04:19;3.70;;;3.40;;
7791;SDS011;3940;49.892;10.886;2022-10-15T04:07:03;3.80;;;3.50;;
7791;SDS011;3940;49.892;10.886;2022-10-15T04:09:47;11.00;;;4.70;;
7791;SDS011;3940;49.892;10.886;2022-10-15T04:12:31;4.33;;;3.50;;
7791;SDS011;3940;49.892;10.886;2022-10-15T04:15:17;4.33;;;3.93;;
7791;SDS011;3940;49.892;10.886;2022-10-15T04:18:01;3.50;;;3.23;;
7791;SDS011;3940;49.892;10.886;2022-10-15T04:20:45;3.70;;;3.40;;
7791;SDS011;3940;49.892;10.886;2022-10-15T04:23:29;3.30;;;3.00;;
7791;SDS011;3940;49.892;10.886;2022-10-15T04:26:13;6.60;;;3.53;;
7791;SDS011;3940;49.892;10.886;2022-10-15T04:28:57;3.77;;;3.43;;
7791;SDS011;3940;49.892;10.886;2022-10-15T04:31:41;3.77;;;3.47;;
7791;SDS011;3940;49.892;10.886;2022-10-15T04:34:26;4.43;;;3.57;;
7791;SDS011;3940;49.892;10.886;2022-10-15T04:37:10;4.23;;;3.83;;
7791;SDS011;3940;49.892;10.886;2022-10-15T04:39:54;6.67;;;2.80;;
7791;SDS011;3940;49.892;10.886;2022-10-15T04:42:38;3.00;;;2.80;;
7791;SDS011;3940;49.892;10.886;2022-10-15T04:45:22;6.33;;;3.40;;
7791;SDS011;3940;49.892;10.886;2022-10-15T04:48:06;4.87;;;3.63;;
7791;SDS011;3940;49.892;10.886;2022-10-15T04:50:50;2.80;;;2.60;;
7791;SDS011;3940;49.892;10.886;2022-10-15T04:53:34;3.60;;;2.90;;
7791;SDS011;3940;49.892;10.886;2022-10-15T04:56:19;4.33;;;2.80;;
7791;SDS011;3940;49.892;10.886;2022-10-15T04:59:05;5.10;;;3.07;;
7791;SDS011;3940;49.892;10.886;2022-10-15T05:01:51;3.00;;;2.73;;
7791;SDS011;3940;49.892;10.886;2022-10-15T05:04:35;4.70;;;3.03;;
7791;SDS011;3940;49.892;10.886;2022-10-15T05:07:19;3.33;;;3.00;;
7791;SDS011;3940;49.892;10.886;2022-10-15T05:10:03;2.80;;;2.50;;
7791;SDS011;3940;49.892;10.886;2022-10-15T05:12:48;2.60;;;2.40;;
7791;SDS011;3940;49.892;10.886;2022-10-15T05:15:32;2.63;;;2.43;;
7791;SDS011;3940;49.892;10.886;2022-10-15T05:18:16;2.97;;;2.50;;
7791;SDS011;3940;49.892;10.886;2022-10-15T05:21:00;10.63;;;3.00;;
7791;SDS011;3940;49.892;10.886;2022-10-15T05:23:45;3.17;;;2.80;;
7791;SDS011;3940;49.892;10.886;2022-10-15T05:26:30;3.13;;;2.83;;
7791;SDS011;3940;49.892;10.886;2022-10-15T05:29:15;3.83;;;2.70;;
7791;SDS011;3940;49.892;10.886;2022-10-15T05:31:59;5.27;;;3.90;;
7791;SDS011;3940;49.892;10.886;2022-10-15T05:34:43;2.70;;;2.17;;
7791;SDS011;3940;49.892;10.886;2022-10-15T05:37:27;3.13;;;2.83;;
7791;SDS011;3940;49.892;10.886;2022-10-15T05:40:11;4.20;;;2.80;;
7791;SDS011;3940;49.892;10.886;2022-10-15T05:42:55;2.83;;;2.63;;
7791;SDS011;3940;49.892;10.886;2022-10-15T05:45:39;3.50;;;3.20;;
7791;SDS011;3940;49.892;10.886;2022-10-15T05:48:24;3.20;;;2.33;;
7791;SDS011;3940;49.892;10.886;2022-10-15T05:51:10;3.97;;;2.27;;
7791;SDS011;3940;49.892;10.886;2022-10-15T05:53:55;2.77;;;2.20;;
7791;SDS011;3940;49.892;10.886;2022-10-15T05:56:40;3.50;;;2.47;;
7791;SDS011;3940;49.892;10.886;2022-10-15T05:59:24;3.60;;;3.30;;
7791;SDS011;3940;49.892;10.886;2022-10-15T06:02:09;2.83;;;2.53;;
7791;SDS011;3940;49.892;10.886;2022-10-15T06:04:58;3.90;;;3.00;;
7791;SDS011;3940;49.892;10.886;2022-10-15T06:07:42;4.00;;;3.60;;
7791;SDS011;3940;49.892;10.886;2022-10-15T06:10:26;3.60;;;3.30;;
7791;SDS011;3940;49.892;10.886;2022-10-15T06:13:11;6.23;;;3.23;;
7791;SDS011;3940;49.892;10.886;2022-10-15T06:15:56;3.20;;;2.87;;
7791;SDS011;3940;49.892;10.886;2022-10-15T06:18:40;3.60;;;2.33;;
7791;SDS011;3940;49.892;10.886;2022-10-15T06:21:24;3.10;;;2.77;;
7791;SDS011;3940;49.892;10.886;2022-10-15T06:24:08;2.63;;;2.43;;
7791;SDS011;3940;49.892;10.886;2022-10-15T06:26:52;5.97;;;2.33;;
7791;SDS011;3940;49.892;10.886;2022-10-15T06:29:36;4.03;;;2.63;;
7791;SDS011;3940;49.892;10.886;2022-10-15T06:32:20;3.27;;;3.00;;
7791;SDS011;3940;49.892;10.886;2022-10-15T06:35:04;3.73;;;3.33;;
7791;SDS011;3940;49.892;10.886;2022-10-15T06:37:49;3.30;;;3.07;;
7791;SDS011;3940;49.892;10.886;2022-10-15T06:40:33;2.90;;;2.70;;
7791;SDS011;3940;49.892;10.886;2022-10-15T06:43:17;2.50;;;2.30;;
7791;SDS011;3940;49.892;10.886;2022-10-15T06:46:02;2.67;;;2.50;;
7791;SDS011;3940;49.892;10.886;2022-10-15T06:48:47;5.17;;;2.43;;
7791;SDS011;3940;49.892;10.886;2022-10-15T06:51:32;3.70;;;3.40;;
7791;SDS011;3940;49.892;10.886;2022-10-15T06:54:16;2.60;;;2.40;;
7791;SDS011;3940;49.892;10.886;2022-10-15T06:57:01;4.20;;;2.83;;
7791;SDS011;3940;49.892;10.886;2022-10-15T06:59:45;6.27;;;3.83;;
7791;SDS011;3940;49.892;10.886;2022-10-15T07:02:29;3.53;;;3.00;;
7791;SDS011;3940;49.892;10.886;2022-10-15T07:05:13;7.23;;;3.33;;
7791;SDS011;3940;49.892;10.886;2022-10-15T07:07:57;3.50;;;3.20;;
7791;SDS011;3940;49.892;10.886;2022-10-15T07:10:43;3.47;;;3.23;;
7791;SDS011;3940;49.892;10.886;2022-10-15T07:13:28;3.83;;;3.53;;
7791;SDS011;3940;49.892;10.886;2022-10-15T07:16:12;4.10;;;3.10;;
7791;SDS011;3940;49.892;10.886;2022-10-15T07:18:56;3.67;;;3.37;;
7791;SDS011;3940;49.892;10.886;2022-10-15T07:21:41;3.17;;;2.97;;
7791;SDS011;3940;49.892;10.886;2022-10-15T07:24:24;4.37;;;3.03;;
7791;SDS011;3940;49.892;10.886;2022-10-15T07:27:16;3.87;;;3.53;;
7791;SDS011;3940;49.892;10.886;2022-10-15T07:30:21;2.33;;;2.13;;
7791;SDS011;3940;49.892;10.886;2022-10-15T07:33:27;6.73;;;2.50;;
7791;SDS011;3940;49.892;10.886;2022-10-15T07:36:35;2.50;;;2.30;;
7791;SDS011;3940;49.892;10.886;2022-10-15T07:39:22;2.60;;;2.40;;
7791;SDS011;3940;49.892;10.886;2022-10-15T07:42:07;2.73;;;2.53;;
7791;SDS011;3940;49.892;10.886;2022-10-15T07:44:51;4.80;;;2.87;;
7791;SDS011;3940;49.892;10.886;2022-10-15T07:47:38;3.40;;;3.10;;
7791;SDS011;3940;49.892;10.886;2022-10-15T07:50:22;2.97;;;2.77;;
7791;SDS011;3940;49.892;10.886;2022-10-15T07:53:07;2.83;;;2.27;;
7791;SDS011;3940;49.892;10.886;2022-10-15T07:55:51;2.73;;;2.53;;
7791;SDS011;3940;49.892;10.886;2022-10-15T07:58:36;3.10;;;2.80;;
7791;SDS011;3940;49.892;10.886;2022-10-15T08:01:21;2.90;;;2.70;;
7791;SDS011;3940;49.892;10.886;2022-10-15T08:04:05;3.27;;;2.97;;
7791;SDS011;3940;49.892;10.886;2022-10-15T08:06:50;2.47;;;2.27;;
7791;SDS011;3940;49.892;10.886;2022-10-15T08:09:34;3.53;;;2.77;;
7791;SDS011;3940;49.892;10.886;2022-10-15T08:12:18;3.10;;;2.53;;
7791;SDS011;3940;49.892;10.886;2022-10-15T08:15:03;3.13;;;2.83;;
7791;SDS011;3940;49.892;10.886;2022-10-15T08:17:48;2.73;;;2.53;;
7791;SDS011;3940;49.892;10.886;2022-10-15T08:20:32;3.47;;;3.17;;
7791;SDS011;3940;49.892;10.886;2022-10-15T08:23:16;2.77;;;2.57;;
7791;SDS011;3940;49.892;10.886;2022-10-15T08:26:01;2.80;;;2.60;;
7791;SDS011;3940;49.892;10.886;2022-10-15T08:28:46;2.87;;;2.67;;
7791;SDS011;3940;49.892;10.886;2022-10-15T08:31:30;2.77;;;2.57;;
7791;SDS011;3940;49.892;10.886;2022-10-15T08:34:15;3.10;;;2.73;;
7791;SDS011;3940;49.892;10.886;2022-10-15T08:37:01;2.80;;;2.60;;
7791;SDS011;3940;49.892;10.886;2022-10-15T08:39:45;4.40;;;3.00;;
7791;SDS011;3940;49.892;10.886;2022-10-15T08:42:31;3.20;;;2.70;;
7791;SDS011;3940;49.892;10.886;2022-10-15T08:45:22;2.60;;;2.40;;
7791;SDS011;3940;49.892;10.886;2022-10-15T08:48:13;2.00;;;1.90;;
7791;SDS011;3940;49.892;10.886;2022-10-15T08:51:05;2.60;;;2.40;;
7791;SDS011;3940;49.892;10.886;2022-10-15T08:53:58;1.97;;;1.87;;
7791;SDS011;3940;49.892;10.886;2022-10-15T08:56:47;5.50;;;4.73;;
7791;SDS011;3940;49.892;10.886;2022-10-15T08:59:41;5.33;;;4.93;;
7791;SDS011;3940;49.892;10.886;2022-10-15T09:02:35;2.60;;;2.23;;
7791;SDS011;3940;49.892;10.886;2022-10-15T09:05:29;2.80;;;2.60;;
7791;SDS011;3940;49.892;10.886;2022-10-15T09:11:49;3.07;;;2.87;;
7791;SDS011;3940;49.892;10.886;2022-10-15T09:14:43;2.60;;;2.40;;
7791;SDS011;3940;49.892;10.886;2022-10-15T09:17:31;2.77;;;1.97;;
7791;SDS011;3940;49.892;10.886;2022-10-15T09:20:19;2.40;;;2.20;;
7791;SDS011;3940;49.892;10.886;2022-10-15T09:23:19;3.63;;;2.20;;
7791;SDS011;3940;49.892;10.886;2022-10-15T09:26:35;2.63;;;2.53;;
7791;SDS011;3940;49.892;10.886;2022-10-15T09:29:24;2.13;;;2.00;;
7791;SDS011;3940;49.892;10.886;2022-10-15T09:32:35;2.10;;;1.90;;
7791;SDS011;3940;49.892;10.886;2022-10-15T09:35:31;5.50;;;1.90;;
7791;SDS011;3940;49.892;10.886;2022-10-15T09:38:31;1.77;;;1.67;;
7791;SDS011;3940;49.892;10.886;2022-10-15T09:41:46;1.70;;;1.60;;
7791;SDS011;3940;49.892;10.886;2022-10-15T09:44:42;1.40;;;1.30;;
7791;SDS011;3940;49.892;10.886;2022-10-15T09:47:29;1.30;;;1.20;;
7791;SDS011;3940;49.892;10.886;2022-10-15T09:50:16;4.70;;;1.40;;
7791;SDS011;3940;49.892;10.886;2022-10-15T09:56:14;1.70;;;1.60;;
7791;SDS011;3940;49.892;10.886;2022-10-15T09:59:02;2.00;;;1.50;;
7791;SDS011;3940;49.892;10.886;2022-10-15T10:02:03;15.57;;;2.00;;
7791;SDS011;3940;49.892;10.886;2022-10-15T10:11:06;4.93;;;1.63;;
7791;SDS011;3940;49.892;10.886;2022-10-15T10:13:53;1.63;;;1.53;;
7791;SDS011;3940;49.892;10.886;2022-10-15T10:17:02;1.77;;;1.60;;
7791;SDS011;3940;49.892;10.886;2022-10-15T10:23:19;1.50;;;1.40;;
7791;SDS011;3940;49.892;10.886;2022-10-15T10:26:07;1.20;;;1.10;;
7791;SDS011;3940;49.892;10.886;2022-10-15T10:28:54;1.30;;;1.20;;
7791;SDS011;3940;49.892;10.886;2022-10-15T10:31:39;1.37;;;1.27;;
7791;SDS011;3940;49.892;10.886;2022-10-15T10:34:26;2.50;;;1.33;;
7791;SDS011;3940;49.892;10.886;2022-10-15T10:37:14;1.60;;;1.50;;
7791;SDS011;3940;49.892;10.886;2022-10-15T10:39:59;5.80;;;1.43;;
7791;SDS011;3940;49.892;10.886;2022-10-15T10:42:45;1.43;;;1.33;;
7791;SDS011;3940;49.892;10.886;2022-10-15T10:45:29;1.47;;;1.37;;
7791;SDS011;3940;49.892;10.886;2022-10-15T10:48:16;1.10;;;1.00;;
7791;SDS011;3940;49.892;10.886;2022-10-15T10:51:11;1.40;;;1.30;;
7791;SDS011;3940;49.892;10.886;2022-10-15T10:54:00;1.43;;;1.20;;
7791;SDS011;3940;49.892;10.886;2022-10-15T10:56:47;2.23;;;1.10;;
7791;SDS011;3940;49.892;10.886;2022-10-15T10:59:34;1.40;;;1.30;;
7791;SDS011;3940;49.892;10.886;2022-10-15T11:02:23;2.27;;;1.57;;
7791;SDS011;3940;49.892;10.886;2022-10-15T11:05:08;1.60;;;1.50;;
7791;SDS011;3940;49.892;10.886;2022-10-15T11:08:05;1.33;;;1.20;;
7791;SDS011;3940;49.892;10.886;2022-10-15T11:11:20;1.10;;;1.00;;
7791;SDS011;3940;49.892;10.886;2022-10-15T11:14:17;1.17;;;1.07;;
7791;SDS011;3940;49.892;10.886;2022-10-15T11:17:16;1.30;;;1.20;;
7791;SDS011;3940;49.892;10.886;2022-10-15T11:23:23;1.57;;;1.20;;
7791;SDS011;3940;49.892;10.886;2022-10-15T11:26:47;1.60;;;1.50;;
7791;SDS011;3940;49.892;10.886;2022-10-15T11:29:43;1.23;;;1.13;;
7791;SDS011;3940;49.892;10.886;2022-10-15T11:32:51;1.50;;;1.40;;
7791;SDS011;3940;49.892;10.886;2022-10-15T11:35:48;3.47;;;1.30;;
7791;SDS011;3940;49.892;10.886;2022-10-15T11:38:45;1.50;;;1.40;;
7791;SDS011;3940;49.892;10.886;2022-10-15T11:41:38;1.60;;;1.50;;
7791;SDS011;3940;49.892;10.886;2022-10-15T11:44:42;4.00;;;1.50;;
7791;SDS011;3940;49.892;10.886;2022-10-15T11:47:53;1.43;;;1.33;;
7791;SDS011;3940;49.892;10.886;2022-10-15T11:50:44;4.20;;;1.70;;
7791;SDS011;3940;49.892;10.886;2022-10-15T11:56:52;2.03;;;1.93;;
7791;SDS011;3940;49.892;10.886;2022-10-15T11:59:42;1.83;;;1.73;;
7791;SDS011;3940;49.892;10.886;2022-10-15T12:02:35;1.67;;;1.57;;
7791;SDS011;3940;49.892;10.886;2022-10-15T12:05:24;1.90;;;1.80;;
7791;SDS011;3940;49.892;10.886;2022-10-15T12:08:16;2.17;;;2.00;;
7791;SDS011;3940;49.892;10.886;2022-10-15T12:11:07;3.70;;;2.20;;
7791;SDS011;3940;49.892;10.886;2022-10-15T12:17:35;2.30;;;2.03;;
7791;SDS011;3940;49.892;10.886;2022-10-15T12:20:25;2.37;;;2.17;;
7791;SDS011;3940;49.892;10.886;2022-10-15T12:26:26;1.20;;;1.10;;
7791;SDS011;3940;49.892;10.886;2022-10-15T12:29:19;1.90;;;1.80;;
7791;SDS011;3940;49.892;10.886;2022-10-15T12:32:17;1.70;;;1.60;;
7791;SDS011;3940;49.892;10.886;2022-10-15T12:35:22;1.30;;;1.20;;
7791;SDS011;3940;49.892;10.886;2022-10-15T12:38:17;3.07;;;1.73;;
7791;SDS011;3940;49.892;10.886;2022-10-15T12:41:08;1.37;;;1.27;;
7791;SDS011;3940;49.892;10.886;2022-10-15T12:44:03;1.47;;;1.37;;
7791;SDS011;3940;49.892;10.886;2022-10-15T12:46:51;2.30;;;1.30;;
7791;SDS011;3940;49.892;10.886;2022-10-15T12:55:43;1.33;;;1.23;;
7791;SDS011;3940;49.892;10.886;2022-10-15T12:58:36;1.70;;;1.60;;
7791;SDS011;3940;49.892;10.886;2022-10-15T13:01:48;1.50;;;1.40;;
7791;SDS011;3940;49.892;10.886;2022-10-15T13:04:35;1.23;;;1.13;;
7791;SDS011;3940;49.892;10.886;2022-10-15T13:07:25;1.40;;;1.30;;
7791;SDS011;3940;49.892;10.886;2022-10-15T13:10:16;1.53;;;1.43;;
7791;SDS011;3940;49.892;10.886;2022-10-15T13:13:11;1.80;;;1.20;;
7791;SDS011;3940;49.892;10.886;2022-10-15T13:15:59;1.30;;;1.20;;
7791;SDS011;3940;49.892;10.886;2022-10-15T13:18:50;2.50;;;1.53;;
7791;SDS011;3940;49.892;10.886;2022-10-15T13:21:52;1.93;;;1.80;;
7791;SDS011;3940;49.892;10.886;2022-10-15T13:24:40;1.90;;;1.80;;
7791;SDS011;3940;49.892;10.886;2022-10-15T13:27:28;1.53;;;1.43;;
7791;SDS011;3940;49.892;10.886;2022-10-15T13:30:15;1.80;;;1.70;;
7791;SDS011;3940;49.892;10.886;2022-10-15T13:33:00;1.77;;;1.57;;
7791;SDS011;3940;49.892;10.886;2022-10-15T13:35:44;2.43;;;2.23;;
7791;SDS011;3940;49.892;10.886;2022-10-15T13:38:28;1.70;;;1.60;;
7791;SDS011;3940;49.892;10.886;2022-10-15T13:41:12;2.03;;;1.90;;
7791;SDS011;3940;49.892;10.886;2022-10-15T13:43:57;3.70;;;2.80;;
7791;SDS011;3940;49.892;10.886;2022-10-15T13:46:43;1.53;;;1.43;;
7791;SDS011;3940;49.892;10.886;2022-10-15T13:49:27;2.90;;;1.47;;
7791;SDS011;3940;49.892;10.886;2022-10-15T13:52:12;2.07;;;1.87;;
7791;SDS011;3940;49.892;10.886;2022-10-15T13:54:56;1.50;;;1.40;;
7791;SDS011;3940;49.892;10.886;2022-10-15T13:57:43;1.53;;;1.43;;
7791;SDS011;3940;49.892;10.886;2022-10-15T14:00:31;1.47;;;1.37;;
7791;SDS011;3940;49.892;10.886;2022-10-15T14:03:18;2.20;;;2.00;;
7791;SDS011;3940;49.892;10.886;2022-10-15T14:06:13;1.50;;;1.40;;
7791;SDS011;3940;49.892;10.886;2022-10-15T14:12:03;6.20;;;1.20;;
7791;SDS011;3940;49.892;10.886;2022-10-15T14:14:50;1.70;;;1.60;;
7791;SDS011;3940;49.892;10.886;2022-10-15T14:17:34;1.30;;;1.20;;
7791;SDS011;3940;49.892;10.886;2022-10-15T14:20:18;1.50;;;1.40;;
7791;SDS011;3940;49.892;10.886;2022-10-15T14:23:04;2.70;;;2.50;;
7791;SDS011;3940;49.892;10.886;2022-10-15T14:25:51;1.30;;;1.20;;
7791;SDS011;3940;49.892;10.886;2022-10-15T14:28:40;1.70;;;1.60;;
7791;SDS011;3940;49.892;10.886;2022-10-15T14:31:29;1.40;;;1.30;;
7791;SDS011;3940;49.892;10.886;2022-10-15T14:34:25;3.00;;;1.20;;
7791;SDS011;3940;49.892;10.886;2022-10-15T14:37:36;1.47;;;1.37;;
7791;SDS011;3940;49.892;10.886;2022-10-15T14:40:23;1.20;;;1.10;;
7791;SDS011;3940;49.892;10.886;2022-10-15T14:43:16;1.43;;;1.30;;
7791;SDS011;3940;49.892;10.886;2022-10-15T14:46:01;1.50;;;1.40;;
7791;SDS011;3940;49.892;10.886;2022-10-15T14:48:48;2.60;;;1.40;;
7791;SDS011;3940;49.892;10.886;2022-10-15T14:51:33;1.47;;;1.37;;
7791;SDS011;3940;49.892;10.886;2022-10-15T14:54:19;1.67;;;1.57;;
7791;SDS011;3940;49.892;10.886;2022-10-15T14:57:22;2.97;;;1.60;;
7791;SDS011;3940;49.892;10.886;2022-10-15T15:00:20;2.20;;;1.80;;
7791;SDS011;3940;49.892;10.886;2022-10-15T15:03:25;2.00;;;1.80;;
7791;SDS011;3940;49.892;10.886;2022-10-15T15:06:11;7.43;;;1.97;;
7791;SDS011;3940;49.892;10.886;2022-10-15T15:08:57;2.90;;;1.47;;
7791;SDS011;3940;49.892;10.886;2022-10-15T15:11:42;1.67;;;1.57;;
7791;SDS011;3940;49.892;10.886;2022-10-15T15:14:26;2.17;;;1.87;;
7791;SDS011;3940;49.892;10.886;2022-10-15T15:17:12;1.83;;;1.70;;
7791;SDS011;3940;49.892;10.886;2022-10-15T15:19:59;2.20;;;2.00;;
7791;SDS011;3940;49.892;10.886;2022-10-15T15:22:44;2.00;;;1.80;;
7791;SDS011;3940;49.892;10.886;2022-10-15T15:25:33;2.70;;;1.87;;
7791;SDS011;3940;49.892;10.886;2022-10-15T15:28:21;1.87;;;1.77;;
7791;SDS011;3940;49.892;10.886;2022-10-15T15:31:09;2.03;;;1.70;;
7791;SDS011;3940;49.892;10.886;2022-10-15T15:33:58;4.60;;;1.90;;
7791;SDS011;3940;49.892;10.886;2022-10-15T15:36:42;2.50;;;1.40;;
7791;SDS011;3940;49.892;10.886;2022-10-15T15:39:27;2.37;;;1.70;;
7791;SDS011;3940;49.892;10.886;2022-10-15T15:42:13;1.60;;;1.50;;
7791;SDS011;3940;49.892;10.886;2022-10-15T15:44:58;5.13;;;3.33;;
7791;SDS011;3940;49.892;10.886;2022-10-15T15:47:42;5.30;;;4.80;;
7791;SDS011;3940;49.892;10.886;2022-10-15T15:50:26;3.93;;;2.97;;
7791;SDS011;3940;49.892;10.886;2022-10-15T15:53:10;3.17;;;2.90;;
7791;SDS011;3940;49.892;10.886;2022-10-15T15:55:55;2.50;;;2.30;;
7791;SDS011;3940;49.892;10.886;2022-10-15T15:58:39;2.03;;;1.90;;
7791;SDS011;3940;49.892;10.886;2022-10-15T16:01:24;4.53;;;2.00;;
7791;SDS011;3940;49.892;10.886;2022-10-15T16:04:08;4.47;;;3.50;;
7791;SDS011;3940;49.892;10.886;2022-10-15T16:06:52;2.70;;;2.50;;
7791;SDS011;3940;49.892;10.886;2022-10-15T16:09:37;5.70;;;2.63;;
7791;SDS011;3940;49.892;10.886;2022-10-15T16:12:21;4.70;;;3.67;;
7791;SDS011;3940;49.892;10.886;2022-10-15T16:15:06;3.10;;;2.37;;
7791;SDS011;3940;49.892;10.886;2022-10-15T16:17:51;3.70;;;2.37;;
7791;SDS011;3940;49.892;10.886;2022-10-15T16:20:35;3.00;;;2.10;;
7791;SDS011;3940;49.892;10.886;2022-10-15T16:23:22;1.90;;;1.80;;
7791;SDS011;3940;49.892;10.886;2022-10-15T16:26:06;2.93;;;2.20;;
7791;SDS011;3940;49.892;10.886;2022-10-15T16:28:50;2.30;;;2.10;;
7791;SDS011;3940;49.892;10.886;2022-10-15T16:31:34;3.07;;;2.77;;
7791;SDS011;3940;49.892;10.886;2022-10-15T16:34:19;1.90;;;1.80;;
7791;SDS011;3940;49.892;10.886;2022-10-15T16:37:03;3.90;;;3.57;;
7791;SDS011;3940;49.892;10.886;2022-10-15T16:39:48;1.40;;;1.30;;
7791;SDS011;3940;49.892;10.886;2022-10-15T16:42:32;1.83;;;1.73;;
7791;SDS011;3940;49.892;10.886;2022-10-15T16:45:16;2.30;;;2.10;;
7791;SDS011;3940;49.892;10.886;2022-10-15T16:48:00;1.70;;;1.50;;
7791;SDS011;3940;49.892;10.886;2022-10-15T16:50:44;2.80;;;1.97;;
7791;SDS011;3940;49.892;10.886;2022-10-15T16:53:28;2.00;;;1.80;;
7791;SDS011;3940;49.892;10.886;2022-10-15T16:56:16;1.93;;;1.73;;
7791;SDS011;3940;49.892;10.886;2022-10-15T16:59:02;1.40;;;1.30;;
7791;SDS011;3940;49.892;10.886;2022-10-15T17:01:46;4.23;;;2.43;;
7791;SDS011;3940;49.892;10.886;2022-10-15T17:04:30;3.77;;;2.70;;
7791;SDS011;3940;49.892;10.886;2022-10-15T17:07:14;3.80;;;2.67;;
7791;SDS011;3940;49.892;10.886;2022-10-15T17:09:59;4.17;;;3.20;;
7791;SDS011;3940;49.892;10.886;2022-10-15T17:12:44;3.23;;;2.93;;
7791;SDS011;3940;49.892;10.886;2022-10-15T17:15:30;5.30;;;3.23;;
7791;SDS011;3940;49.892;10.886;2022-10-15T17:18:14;3.43;;;3.20;;
7791;SDS011;3940;49.892;10.886;2022-10-15T17:20:58;3.27;;;3.07;;
7791;SDS011;3940;49.892;10.886;2022-10-15T17:23:42;9.03;;;3.60;;
7791;SDS011;3940;49.892;10.886;2022-10-15T17:26:29;3.83;;;2.70;;
7791;SDS011;3940;49.892;10.886;2022-10-15T17:29:18;3.67;;;2.93;;
7791;SDS011;3940;49.892;10.886;2022-10-15T17:32:05;6.33;;;3.10;;
7791;SDS011;3940;49.892;10.886;2022-10-15T17:34:49;4.57;;;3.10;;
7791;SDS011;3940;49.892;10.886;2022-10-15T17:37:33;6.93;;;2.77;;
7791;SDS011;3940;49.892;10.886;2022-10-15T17:40:18;4.60;;;3.50;;
7791;SDS011;3940;49.892;10.886;2022-10-15T17:43:02;6.17;;;3.50;;
7791;SDS011;3940;49.892;10.886;2022-10-15T17:45:46;6.37;;;3.47;;
7791;SDS011;3940;49.892;10.886;2022-10-15T17:48:30;3.90;;;3.50;;
7791;SDS011;3940;49.892;10.886;2022-10-15T17:51:16;5.53;;;4.70;;
7791;SDS011;3940;49.892;10.886;2022-10-15T17:54:02;3.53;;;3.23;;